createdAt,value
2022-10-20T00:00:41.126Z,0.00
2022-10-20T00:01:41.137Z,0.00
2022-10-20T00:02:41.167Z,0.00
2022-10-20T00:03:41.102Z,0.00
2022-10-20T00:04:41.139Z,0.00
2022-10-20T00:05:41.076Z,0.00
2022-10-20T00:06:41.106Z,0.00
2022-10-20T00:07:41.182Z,0.00
2022-10-20T00:08:41.109Z,0.00
2022-10-20T00:09:41.113Z,0.00
2022-10-20T00:10:41.055Z,0.00
2022-10-20T00:11:41.092Z,0.00
2022-10-20T00:12:41.003Z,0.00
2022-10-20T00:13:40.990Z,0.00
2022-10-20T00:14:40.978Z,0.00
2022-10-20T00:15:41.064Z,0.00
2022-10-20T00:16:40.956Z,0.00
2022-10-20T00:17:40.977Z,0.00
2022-10-20T00:18:41.020Z,0.00
2022-10-20T00:19:40.944Z,0.00
2022-10-20T00:20:40.921Z,0.00
2022-10-20T00:21:40.985Z,0.00
2022-10-20T00:22:40.902Z,0.00
2022-10-20T00:23:40.897Z,0.00
2022-10-20T00:24:40.938Z,0.00
2022-10-20T00:25:40.866Z,0.00
2022-10-20T00:26:40.921Z,0.00
2022-10-20T00:27:40.863Z,0.00
2022-10-20T00:28:40.855Z,0.00
2022-10-20T00:29:40.839Z,0.00
2022-10-20T00:30:40.841Z,0.00
2022-10-20T00:31:40.890Z,0.00
2022-10-20T00:32:40.792Z,0.00
2022-10-20T00:33:40.802Z,0.00
2022-10-20T00:34:40.771Z,0.00
2022-10-20T00:35:40.798Z,0.00
2022-10-20T00:36:40.762Z,0.00
2022-10-20T00:37:40.832Z,0.00
2022-10-20T00:38:40.729Z,0.00
2022-10-20T00:39:40.786Z,0.00
2022-10-20T00:40:40.722Z,0.00
2022-10-20T00:41:40.718Z,0.00
2022-10-20T00:42:40.745Z,0.00
2022-10-20T00:43:40.689Z,0.00
2022-10-20T00:44:40.679Z,0.00
2022-10-20T00:45:40.662Z,0.00
2022-10-20T00:46:40.706Z,0.00
2022-10-20T00:47:40.708Z,0.00
2022-10-20T00:48:40.674Z,0.00
2022-10-20T00:49:40.687Z,0.00
2022-10-20T00:50:40.630Z,0.00
2022-10-20T00:51:40.599Z,0.00
2022-10-20T00:52:40.593Z,0.00
2022-10-20T00:53:40.581Z,0.00
2022-10-20T00:54:40.660Z,0.00
2022-10-20T00:55:40.563Z,0.00
2022-10-20T00:56:40.549Z,0.00
2022-10-20T00:57:40.589Z,0.00
2022-10-20T00:58:40.532Z,0.00
2022-10-20T00:59:40.599Z,0.00
2022-10-20T01:00:40.543Z,0.00
2022-10-20T01:01:40.556Z,0.00
2022-10-20T01:02:40.541Z,0.00
2022-10-20T01:03:40.490Z,0.00
2022-10-20T01:04:40.476Z,0.00
2022-10-20T01:05:40.536Z,0.00
2022-10-20T01:06:40.445Z,0.00
2022-10-20T01:07:40.496Z,0.00
2022-10-20T01:08:40.458Z,0.00
2022-10-20T01:09:40.464Z,0.00
2022-10-20T01:10:40.413Z,0.00
2022-10-20T01:11:40.429Z,0.00
2022-10-20T01:12:40.406Z,0.00
2022-10-20T01:13:40.434Z,0.00
2022-10-20T01:14:40.389Z,0.00
2022-10-20T01:15:40.386Z,0.00
2022-10-20T01:16:40.362Z,0.00
2022-10-20T01:17:40.342Z,0.00
2022-10-20T01:18:40.381Z,0.00
2022-10-20T01:19:40.347Z,0.00
2022-10-20T01:20:40.322Z,0.00
2022-10-20T01:21:40.295Z,0.00
2022-10-20T01:22:40.327Z,0.00
2022-10-20T01:23:40.289Z,0.00
2022-10-20T01:24:40.311Z,0.00
2022-10-20T01:25:40.255Z,0.00
2022-10-20T01:26:40.273Z,0.00
2022-10-20T01:27:40.416Z,0.00
2022-10-20T01:28:40.239Z,0.00
2022-10-20T01:29:40.263Z,0.00
2022-10-20T01:30:40.271Z,0.00
2022-10-20T01:31:40.261Z,0.00
2022-10-20T01:32:40.215Z,0.00
2022-10-20T01:33:40.198Z,0.00
2022-10-20T01:34:40.175Z,0.00
2022-10-20T01:35:40.219Z,0.00
2022-10-20T01:36:40.186Z,0.00
2022-10-20T01:37:49.008Z,0.00
2022-10-20T01:38:40.132Z,0.00
2022-10-20T01:39:40.133Z,0.00
2022-10-20T01:40:40.104Z,0.00
2022-10-20T01:41:40.175Z,0.00
2022-10-20T01:42:40.302Z,0.00
2022-10-20T01:43:40.088Z,0.00
2022-10-20T01:44:40.094Z,0.00
2022-10-20T01:45:40.064Z,0.00
2022-10-20T01:46:40.075Z,0.00
2022-10-20T01:47:40.100Z,0.00
2022-10-20T01:48:40.087Z,0.00
2022-10-20T01:49:40.021Z,0.00
2022-10-20T01:50:40.059Z,0.00
2022-10-20T01:52:39.996Z,0.00
2022-10-20T01:53:40.026Z,0.00
2022-10-20T01:54:39.962Z,0.00
2022-10-20T01:55:39.959Z,0.00
2022-10-20T01:56:39.995Z,0.00
2022-10-20T01:57:39.981Z,0.00
2022-10-20T01:58:39.934Z,0.00
2022-10-20T01:59:39.974Z,0.00
2022-10-20T02:00:39.919Z,0.00
2022-10-20T02:01:39.960Z,0.00
2022-10-20T02:02:39.970Z,0.00
2022-10-20T02:03:39.962Z,0.00
2022-10-20T02:04:39.866Z,0.00
2022-10-20T02:05:39.875Z,0.00
2022-10-20T02:06:39.854Z,0.00
2022-10-20T02:07:39.829Z,0.00
2022-10-20T02:08:39.931Z,0.00
2022-10-20T02:09:39.858Z,0.00
2022-10-20T02:10:39.899Z,0.00
2022-10-20T02:11:39.804Z,0.00
2022-10-20T02:12:39.911Z,0.00
2022-10-20T02:13:39.766Z,0.00
2022-10-20T02:14:39.829Z,0.00
2022-10-20T02:15:39.773Z,0.00
2022-10-20T02:16:39.791Z,0.00
2022-10-20T02:17:39.760Z,0.00
2022-10-20T02:18:39.770Z,0.00
2022-10-20T02:19:39.715Z,0.00
2022-10-20T02:20:39.714Z,0.00
2022-10-20T02:21:39.777Z,0.00
2022-10-20T02:22:39.699Z,0.00
2022-10-20T02:23:39.668Z,0.00
2022-10-20T02:24:39.733Z,0.00
2022-10-20T02:25:39.645Z,0.00
2022-10-20T02:26:39.727Z,0.00
2022-10-20T02:27:39.651Z,0.00
2022-10-20T02:28:39.666Z,0.00
2022-10-20T02:29:39.625Z,0.00
2022-10-20T02:30:39.619Z,0.00
2022-10-20T02:31:39.594Z,0.00
2022-10-20T02:32:39.802Z,0.00
2022-10-20T02:33:39.566Z,0.00
2022-10-20T02:34:42.407Z,0.00
2022-10-20T02:35:39.635Z,0.00
2022-10-20T02:36:39.551Z,0.00
2022-10-20T02:37:39.872Z,0.00
2022-10-20T02:38:39.532Z,0.00
2022-10-20T02:39:39.522Z,0.00
2022-10-20T02:40:39.502Z,0.00
2022-10-20T02:41:39.541Z,0.00
2022-10-20T02:42:39.528Z,0.00
2022-10-20T02:43:39.481Z,0.00
2022-10-20T02:44:39.464Z,0.00
2022-10-20T02:45:39.528Z,0.00
2022-10-20T02:46:39.442Z,0.00
2022-10-20T02:47:39.785Z,0.00
2022-10-20T02:48:39.505Z,0.00
2022-10-20T02:49:39.404Z,0.00
2022-10-20T02:50:39.402Z,0.00
2022-10-20T02:51:39.456Z,0.00
2022-10-20T02:52:39.449Z,0.00
2022-10-20T02:53:39.370Z,0.00
2022-10-20T02:54:39.368Z,0.00
2022-10-20T02:55:39.351Z,0.00
2022-10-20T02:56:39.367Z,0.00
2022-10-20T02:57:39.708Z,0.00
2022-10-20T02:58:39.382Z,0.00
2022-10-20T02:59:39.370Z,0.00
2022-10-20T03:00:39.308Z,0.00
2022-10-20T03:01:39.364Z,0.00
2022-10-20T03:02:39.282Z,0.00
2022-10-20T03:03:39.317Z,0.00
2022-10-20T03:04:39.260Z,0.00
2022-10-20T03:05:39.307Z,0.00
2022-10-20T03:06:39.289Z,0.00
2022-10-20T03:07:39.331Z,0.00
2022-10-20T03:08:39.284Z,0.00
2022-10-20T03:09:39.254Z,0.00
2022-10-20T03:10:39.209Z,0.00
2022-10-20T03:11:39.198Z,0.00
2022-10-20T03:12:39.182Z,0.00
2022-10-20T03:13:39.175Z,0.00
2022-10-20T03:14:39.205Z,0.00
2022-10-20T03:15:39.190Z,0.00
2022-10-20T03:16:39.141Z,0.00
2022-10-20T03:17:39.348Z,0.00
2022-10-20T03:18:39.140Z,0.00
2022-10-20T03:19:39.103Z,0.00
2022-10-20T03:20:39.097Z,0.00
2022-10-20T03:21:39.094Z,0.00
2022-10-20T03:22:39.078Z,0.00
2022-10-20T03:23:39.113Z,0.00
2022-10-20T03:24:39.066Z,0.00
2022-10-20T03:25:39.052Z,0.00
2022-10-20T03:26:39.037Z,0.00
2022-10-20T03:27:39.328Z,0.00
2022-10-20T03:28:39.063Z,0.00
2022-10-20T03:29:39.025Z,0.00
2022-10-20T03:30:39.002Z,0.00
2022-10-20T03:31:39.038Z,0.00
2022-10-20T03:32:39.348Z,0.00
2022-10-20T03:33:39.009Z,0.00
2022-10-20T03:34:39.017Z,0.00
2022-10-20T03:35:38.969Z,0.00
2022-10-20T03:36:38.940Z,0.00
2022-10-20T03:37:38.924Z,0.00
2022-10-20T03:38:39.013Z,0.00
2022-10-20T03:39:38.933Z,0.00
2022-10-20T03:40:38.953Z,0.00
2022-10-20T03:41:39.048Z,0.00
2022-10-20T03:42:39.085Z,0.00
2022-10-20T03:43:38.859Z,0.00
2022-10-20T03:44:38.862Z,0.00
2022-10-20T03:45:38.873Z,0.00
2022-10-20T03:46:38.851Z,0.00
2022-10-20T03:47:38.900Z,0.00
2022-10-20T03:48:38.826Z,0.00
2022-10-20T03:49:38.797Z,0.00
2022-10-20T03:50:38.793Z,0.00
2022-10-20T03:51:38.825Z,0.00
2022-10-20T03:52:39.119Z,0.00
2022-10-20T03:53:38.759Z,0.00
2022-10-20T03:54:38.798Z,0.00
2022-10-20T03:55:38.746Z,0.00
2022-10-20T03:56:38.792Z,0.00
2022-10-20T03:57:39.033Z,0.00
2022-10-20T03:58:38.714Z,0.00
2022-10-20T03:59:38.697Z,0.00
2022-10-20T04:00:38.737Z,0.00
2022-10-20T04:01:38.720Z,0.00
2022-10-20T04:02:39.115Z,0.00
2022-10-20T04:03:38.656Z,0.00
2022-10-20T04:04:38.686Z,0.00
2022-10-20T04:05:38.762Z,0.00
2022-10-20T04:06:38.707Z,0.00
2022-10-20T04:07:38.623Z,0.00
2022-10-20T04:08:38.655Z,0.00
2022-10-20T04:09:38.596Z,0.00
2022-10-20T04:10:38.648Z,0.00
2022-10-20T04:11:38.631Z,0.00
2022-10-20T04:12:39.107Z,0.00
2022-10-20T04:13:38.564Z,0.00
2022-10-20T04:14:38.557Z,0.00
2022-10-20T04:15:38.543Z,0.00
2022-10-20T04:16:38.612Z,0.00
2022-10-20T04:18:38.534Z,0.00
2022-10-20T04:19:38.501Z,0.00
2022-10-20T04:20:40.706Z,0.00
2022-10-20T04:21:38.487Z,0.00
2022-10-20T04:22:38.901Z,0.00
2022-10-20T04:23:38.491Z,0.00
2022-10-20T04:24:38.496Z,0.00
2022-10-20T04:25:38.493Z,0.00
2022-10-20T04:26:38.490Z,0.00
2022-10-20T04:27:38.642Z,0.00
2022-10-20T04:28:38.416Z,0.00
2022-10-20T04:29:38.449Z,0.00
2022-10-20T04:30:38.398Z,0.00
2022-10-20T04:31:38.437Z,0.00
2022-10-20T04:32:38.370Z,0.00
2022-10-20T04:33:38.366Z,0.00
2022-10-20T04:34:38.403Z,0.00
2022-10-20T04:35:38.366Z,0.00
2022-10-20T04:36:38.364Z,0.00
2022-10-20T04:37:38.687Z,0.00
2022-10-20T04:38:38.384Z,0.00
2022-10-20T04:39:38.317Z,0.00
2022-10-20T04:40:38.290Z,0.00
2022-10-20T04:41:38.350Z,0.00
2022-10-20T04:42:38.274Z,0.00
2022-10-20T04:43:38.259Z,0.00
2022-10-20T04:44:38.252Z,0.00
2022-10-20T04:45:38.301Z,0.00
2022-10-20T04:46:38.273Z,0.00
2022-10-20T04:47:38.766Z,0.00
2022-10-20T04:48:38.221Z,0.00
2022-10-20T04:49:38.192Z,0.00
2022-10-20T04:50:38.251Z,0.00
2022-10-20T04:51:38.175Z,0.00
2022-10-20T04:52:38.234Z,0.00
2022-10-20T04:53:38.173Z,0.00
2022-10-20T04:54:38.205Z,0.00
2022-10-20T04:55:38.142Z,0.00
2022-10-20T04:56:38.136Z,0.00
2022-10-20T04:57:38.386Z,0.00
2022-10-20T04:58:38.114Z,0.00
2022-10-20T04:59:38.150Z,0.00
2022-10-20T05:00:38.125Z,0.00
2022-10-20T05:01:38.137Z,0.00
2022-10-20T05:02:38.089Z,0.00
2022-10-20T05:03:38.052Z,0.00
2022-10-20T05:04:38.096Z,0.00
2022-10-20T05:05:38.041Z,0.00
2022-10-20T05:06:38.031Z,0.00
2022-10-20T05:07:38.502Z,0.00
2022-10-20T05:08:38.068Z,0.00
2022-10-20T05:09:38.038Z,0.00
2022-10-20T05:10:37.985Z,0.00
2022-10-20T05:11:37.992Z,0.00
2022-10-20T05:12:38.400Z,0.00
2022-10-20T05:13:37.953Z,0.00
2022-10-20T05:14:38.009Z,0.00
2022-10-20T05:15:37.948Z,0.00
2022-10-20T05:16:37.930Z,0.00
2022-10-20T05:17:37.976Z,0.00
2022-10-20T05:18:37.913Z,0.00
2022-10-20T05:19:37.950Z,0.00
2022-10-20T05:20:41.333Z,0.00
2022-10-20T05:21:37.946Z,0.00
2022-10-20T05:22:38.173Z,0.00
2022-10-20T05:23:37.807Z,0.00
2022-10-20T05:24:37.883Z,0.00
2022-10-20T05:25:37.788Z,0.00
2022-10-20T05:26:37.831Z,0.00
2022-10-20T05:27:37.775Z,0.00
2022-10-20T05:28:37.761Z,0.00
2022-10-20T05:29:37.753Z,0.00
2022-10-20T05:30:37.831Z,0.00
2022-10-20T05:31:37.723Z,0.00
2022-10-20T05:32:38.100Z,0.00
2022-10-20T05:33:37.693Z,0.00
2022-10-20T05:34:37.747Z,0.00
2022-10-20T05:35:37.685Z,0.00
2022-10-20T05:36:37.677Z,0.00
2022-10-20T05:37:37.664Z,0.00
2022-10-20T05:38:37.673Z,0.00
2022-10-20T05:39:37.746Z,0.00
2022-10-20T05:40:37.632Z,0.00
2022-10-20T05:41:39.035Z,0.00
2022-10-20T05:42:37.993Z,0.00
2022-10-20T05:43:37.636Z,0.00
2022-10-20T05:44:37.638Z,0.00
2022-10-20T05:45:37.588Z,5.62
2022-10-20T05:46:37.582Z,5.62
2022-10-20T05:47:37.555Z,5.62
2022-10-20T05:48:42.832Z,5.62
2022-10-20T05:49:37.593Z,5.62
2022-10-20T05:50:37.576Z,5.62
2022-10-20T05:51:37.563Z,5.62
2022-10-20T05:52:38.115Z,5.62
2022-10-20T05:53:37.504Z,11.25
2022-10-20T05:54:37.519Z,11.25
2022-10-20T05:55:37.485Z,11.25
2022-10-20T05:56:37.483Z,11.25
2022-10-20T05:57:37.479Z,11.25
2022-10-20T05:58:37.505Z,16.88
2022-10-20T05:59:37.444Z,16.88
2022-10-20T06:00:37.435Z,16.88
2022-10-20T06:01:37.457Z,16.88
2022-10-20T06:02:37.721Z,16.88
2022-10-20T06:03:37.437Z,16.88
2022-10-20T06:04:37.473Z,16.88
2022-10-20T06:05:37.539Z,22.50
2022-10-20T06:06:37.414Z,22.50
2022-10-20T06:07:37.385Z,22.50
2022-10-20T06:08:37.580Z,28.12
2022-10-20T06:09:37.440Z,28.12
2022-10-20T06:10:37.436Z,28.12
2022-10-20T06:11:39.536Z,28.12
2022-10-20T06:12:37.645Z,28.12
2022-10-20T06:13:37.305Z,33.75
2022-10-20T06:14:37.363Z,33.75
2022-10-20T06:15:37.285Z,39.38
2022-10-20T06:16:37.279Z,39.38
2022-10-20T06:17:37.266Z,45.00
2022-10-20T06:18:37.306Z,45.00
2022-10-20T06:19:37.237Z,45.00
2022-10-20T06:20:37.231Z,45.00
2022-10-20T06:21:37.315Z,45.00
2022-10-20T06:22:37.497Z,50.62
2022-10-20T06:23:37.360Z,50.62
2022-10-20T06:24:37.241Z,50.62
2022-10-20T06:25:37.181Z,45.00
2022-10-20T06:26:37.184Z,45.00
2022-10-20T06:27:37.218Z,45.00
2022-10-20T06:28:37.150Z,50.62
2022-10-20T06:29:37.143Z,50.62
2022-10-20T06:30:37.347Z,50.62
2022-10-20T06:31:37.120Z,50.62
2022-10-20T06:32:37.343Z,56.25
2022-10-20T06:33:37.170Z,61.88
2022-10-20T06:34:37.110Z,67.50
2022-10-20T06:35:37.090Z,73.12
2022-10-20T06:36:37.085Z,73.12
2022-10-20T06:37:37.131Z,78.75
2022-10-20T06:38:37.040Z,84.38
2022-10-20T06:39:37.040Z,84.38
2022-10-20T06:40:37.026Z,90.00
2022-10-20T06:41:37.055Z,95.62
2022-10-20T06:42:37.429Z,101.25
2022-10-20T06:43:36.997Z,101.25
2022-10-20T06:44:37.002Z,101.25
2022-10-20T06:45:36.981Z,101.25
2022-10-20T06:46:37.021Z,112.50
2022-10-20T06:47:37.120Z,112.50
2022-10-20T06:48:36.945Z,112.50
2022-10-20T06:49:36.985Z,118.12
2022-10-20T06:50:36.942Z,118.12
2022-10-20T06:51:36.919Z,129.38
2022-10-20T06:52:37.191Z,123.75
2022-10-20T06:53:36.893Z,135.00
2022-10-20T06:54:36.963Z,129.38
2022-10-20T06:55:36.899Z,129.38
2022-10-20T06:56:36.860Z,140.62
2022-10-20T06:57:36.895Z,140.62
2022-10-20T06:58:36.840Z,140.62
2022-10-20T06:59:36.840Z,146.25
2022-10-20T07:00:36.860Z,151.88
2022-10-20T07:01:37.005Z,157.50
2022-10-20T07:02:37.121Z,163.12
2022-10-20T07:03:36.815Z,157.50
2022-10-20T07:04:36.809Z,151.88
2022-10-20T07:05:36.793Z,151.88
2022-10-20T07:06:36.797Z,151.88
2022-10-20T07:08:36.833Z,140.62
2022-10-20T07:09:36.787Z,140.62
2022-10-20T07:10:36.795Z,135.00
2022-10-20T07:11:36.738Z,135.00
2022-10-20T07:12:37.153Z,140.62
2022-10-20T07:13:36.788Z,146.25
2022-10-20T07:14:36.984Z,151.88
2022-10-20T07:15:36.768Z,163.12
2022-10-20T07:16:36.741Z,174.38
2022-10-20T07:17:36.895Z,191.25
2022-10-20T07:18:36.705Z,185.62
2022-10-20T07:19:36.634Z,185.62
2022-10-20T07:20:36.803Z,185.62
2022-10-20T07:21:39.136Z,174.38
2022-10-20T07:22:37.178Z,174.38
2022-10-20T07:23:36.587Z,202.50
2022-10-20T07:24:36.619Z,213.75
2022-10-20T07:25:36.572Z,202.50
2022-10-20T07:26:36.599Z,208.12
2022-10-20T07:27:36.554Z,208.12
2022-10-20T07:28:36.549Z,202.50
2022-10-20T07:29:36.580Z,213.75
2022-10-20T07:30:36.528Z,213.75
2022-10-20T07:31:36.513Z,202.50
2022-10-20T07:32:36.916Z,208.12
2022-10-20T07:33:36.509Z,208.12
2022-10-20T07:34:36.519Z,219.38
2022-10-20T07:35:36.513Z,213.75
2022-10-20T07:36:36.460Z,219.38
2022-10-20T07:37:36.787Z,208.12
2022-10-20T07:38:36.441Z,202.50
2022-10-20T07:39:36.441Z,213.75
2022-10-20T07:40:36.423Z,208.12
2022-10-20T07:41:36.503Z,213.75
2022-10-20T07:42:36.627Z,230.62
2022-10-20T07:43:36.448Z,225.00
2022-10-20T07:44:36.374Z,230.62
2022-10-20T07:45:36.374Z,225.00
2022-10-20T07:46:36.400Z,219.38
2022-10-20T07:47:38.602Z,219.38
2022-10-20T07:48:36.349Z,219.38
2022-10-20T07:49:44.017Z,219.38
2022-10-20T07:50:36.332Z,219.38
2022-10-20T07:51:36.309Z,213.75
2022-10-20T07:52:36.691Z,219.38
2022-10-20T07:53:36.341Z,213.75
2022-10-20T07:54:36.295Z,219.38
2022-10-20T07:55:38.911Z,225.00
2022-10-20T07:56:36.300Z,230.62
2022-10-20T07:57:36.318Z,230.62
2022-10-20T07:58:36.246Z,230.62
2022-10-20T07:59:36.221Z,225.00
2022-10-20T08:00:36.289Z,219.38
2022-10-20T08:01:36.279Z,219.38
2022-10-20T08:02:36.525Z,213.75
2022-10-20T08:03:36.190Z,202.50
2022-10-20T08:04:36.224Z,196.88
2022-10-20T08:05:36.210Z,208.12
2022-10-20T08:06:36.172Z,219.38
2022-10-20T08:07:36.248Z,225.00
2022-10-20T08:08:36.166Z,225.00
2022-10-20T08:09:36.195Z,225.00
2022-10-20T08:10:36.119Z,225.00
2022-10-20T08:11:36.106Z,225.00
2022-10-20T08:12:36.430Z,202.50
2022-10-20T08:13:36.083Z,208.12
2022-10-20T08:14:36.066Z,196.88
2022-10-20T08:15:36.131Z,208.12
2022-10-20T08:16:37.454Z,230.62
2022-10-20T08:17:36.146Z,241.88
2022-10-20T08:18:36.069Z,264.38
2022-10-20T08:19:37.953Z,292.50
2022-10-20T08:20:36.044Z,303.75
2022-10-20T08:21:36.014Z,309.38
2022-10-20T08:22:36.305Z,320.62
2022-10-20T08:23:35.987Z,309.38
2022-10-20T08:24:35.980Z,309.38
2022-10-20T08:25:35.966Z,315.00
2022-10-20T08:26:35.961Z,320.62
2022-10-20T08:27:36.004Z,320.62
2022-10-20T08:28:35.980Z,315.00
2022-10-20T08:29:35.925Z,315.00
2022-10-20T08:30:35.940Z,309.38
2022-10-20T08:31:35.950Z,309.38
2022-10-20T08:32:36.242Z,315.00
2022-10-20T08:33:35.885Z,326.25
2022-10-20T08:34:35.869Z,320.62
2022-10-20T08:35:35.857Z,320.62
2022-10-20T08:36:35.859Z,326.25
2022-10-20T08:37:36.193Z,326.25
2022-10-20T08:38:35.825Z,320.62
2022-10-20T08:39:35.860Z,337.50
2022-10-20T08:40:35.802Z,354.38
2022-10-20T08:41:55.449Z,337.50
2022-10-20T08:42:35.853Z,275.62
2022-10-20T08:43:35.793Z,230.62
2022-10-20T08:44:35.766Z,230.62
2022-10-20T08:45:38.379Z,236.25
2022-10-20T08:46:35.744Z,236.25
2022-10-20T08:47:36.277Z,247.50
2022-10-20T08:48:35.725Z,264.38
2022-10-20T08:49:35.721Z,275.62
2022-10-20T08:50:35.704Z,275.62
2022-10-20T08:51:35.741Z,264.38
2022-10-20T08:52:35.701Z,253.12
2022-10-20T08:53:35.672Z,270.00
2022-10-20T08:54:35.683Z,326.25
2022-10-20T08:55:35.655Z,337.50
2022-10-20T08:56:35.708Z,298.12
2022-10-20T08:57:36.495Z,303.75
2022-10-20T08:58:35.624Z,337.50
2022-10-20T08:59:39.176Z,337.50
2022-10-20T09:00:35.642Z,337.50
2022-10-20T09:01:35.718Z,354.38
2022-10-20T09:02:35.585Z,360.00
2022-10-20T09:03:35.581Z,354.38
2022-10-20T09:04:35.614Z,348.75
2022-10-20T09:05:35.617Z,365.62
2022-10-20T09:06:35.559Z,382.50
2022-10-20T09:07:35.815Z,382.50
2022-10-20T09:08:35.558Z,388.12
2022-10-20T09:09:35.508Z,399.38
2022-10-20T09:10:35.550Z,399.38
2022-10-20T09:11:35.531Z,376.88
2022-10-20T09:12:35.481Z,365.62
2022-10-20T09:13:35.598Z,365.62
2022-10-20T09:14:35.464Z,421.88
2022-10-20T09:15:35.460Z,427.50
2022-10-20T09:16:42.023Z,421.88
2022-10-20T09:17:35.736Z,416.25
2022-10-20T09:18:35.416Z,405.00
2022-10-20T09:19:35.414Z,421.88
2022-10-20T09:20:35.401Z,450.00
2022-10-20T09:21:35.384Z,483.75
2022-10-20T09:22:36.211Z,483.75
2022-10-20T09:23:41.125Z,450.00
2022-10-20T09:24:35.381Z,421.88
2022-10-20T09:25:35.417Z,416.25
2022-10-20T09:26:57.568Z,405.00
2022-10-20T09:27:35.710Z,393.75
2022-10-20T09:28:49.214Z,388.12
2022-10-20T09:29:35.316Z,393.75
2022-10-20T09:30:35.349Z,393.75
2022-10-20T09:31:35.347Z,376.88
2022-10-20T09:32:50.627Z,388.12
2022-10-20T09:33:35.319Z,399.38
2022-10-20T09:34:35.304Z,455.62
2022-10-20T09:35:35.259Z,461.25
2022-10-20T09:36:35.257Z,450.00
2022-10-20T09:37:35.337Z,416.25
2022-10-20T09:38:35.218Z,399.38
2022-10-20T09:39:35.221Z,399.38
2022-10-20T09:40:35.192Z,376.88
2022-10-20T09:41:35.190Z,376.88
2022-10-20T09:42:35.456Z,360.00
2022-10-20T09:43:35.212Z,354.38
2022-10-20T09:44:35.159Z,331.88
2022-10-20T09:45:35.175Z,343.12
2022-10-20T09:46:35.129Z,343.12
2022-10-20T09:47:35.133Z,348.75
2022-10-20T09:48:35.138Z,360.00
2022-10-20T09:49:35.168Z,343.12
2022-10-20T09:50:35.113Z,376.88
2022-10-20T09:51:35.127Z,405.00
2022-10-20T09:52:35.399Z,365.62
2022-10-20T09:53:35.114Z,337.50
2022-10-20T09:54:35.050Z,354.38
2022-10-20T09:55:35.063Z,354.38
2022-10-20T09:56:35.039Z,399.38
2022-10-20T09:57:35.046Z,433.12
2022-10-20T09:58:35.056Z,399.38
2022-10-20T09:59:35.015Z,393.75
2022-10-20T10:00:37.679Z,399.38
2022-10-20T10:01:35.010Z,382.50
2022-10-20T10:02:35.323Z,388.12
2022-10-20T10:03:34.962Z,388.12
2022-10-20T10:04:34.991Z,393.75
2022-10-20T10:05:34.958Z,365.62
2022-10-20T10:06:34.961Z,360.00
2022-10-20T10:07:34.943Z,348.75
2022-10-20T10:08:34.958Z,348.75
2022-10-20T10:09:35.002Z,348.75
2022-10-20T10:10:34.890Z,365.62
2022-10-20T10:11:34.882Z,371.25
2022-10-20T10:12:35.179Z,371.25
2022-10-20T10:13:34.902Z,382.50
2022-10-20T10:14:34.915Z,388.12
2022-10-20T10:15:34.937Z,393.75
2022-10-20T10:16:34.866Z,388.12
2022-10-20T10:17:35.121Z,399.38
2022-10-20T10:18:34.803Z,405.00
2022-10-20T10:19:34.845Z,393.75
2022-10-20T10:20:34.804Z,405.00
2022-10-20T10:21:34.831Z,416.25
2022-10-20T10:22:35.082Z,421.88
2022-10-20T10:23:34.763Z,444.38
2022-10-20T10:24:34.767Z,466.88
2022-10-20T10:25:34.779Z,461.25
2022-10-20T10:26:34.749Z,455.62
2022-10-20T10:27:34.721Z,421.88
2022-10-20T10:28:34.704Z,393.75
2022-10-20T10:29:34.698Z,388.12
2022-10-20T10:30:34.752Z,371.25
2022-10-20T10:31:34.679Z,360.00
2022-10-20T10:32:34.977Z,354.38
2022-10-20T10:33:34.655Z,360.00
2022-10-20T10:34:34.706Z,371.25
2022-10-20T10:35:34.653Z,376.88
2022-10-20T10:36:34.622Z,388.12
2022-10-20T10:37:35.270Z,393.75
2022-10-20T10:38:34.608Z,393.75
2022-10-20T10:39:34.624Z,410.62
2022-10-20T10:40:34.644Z,416.25
2022-10-20T10:41:34.578Z,416.25
2022-10-20T10:42:34.923Z,421.88
2022-10-20T10:43:35.456Z,421.88
2022-10-20T10:44:34.552Z,427.50
2022-10-20T10:45:34.580Z,444.38
2022-10-20T10:46:34.569Z,461.25
2022-10-20T10:47:37.845Z,478.12
2022-10-20T10:48:34.551Z,472.50
2022-10-20T10:49:34.649Z,444.38
2022-10-20T10:50:34.485Z,433.12
2022-10-20T10:51:34.472Z,438.75
2022-10-20T10:52:34.460Z,450.00
2022-10-20T10:53:34.457Z,461.25
2022-10-20T10:54:34.487Z,495.00
2022-10-20T10:55:48.279Z,540.00
2022-10-20T10:56:34.451Z,613.12
2022-10-20T10:57:34.668Z,652.50
2022-10-20T10:58:34.411Z,607.50
2022-10-20T10:59:34.408Z,528.75
2022-10-20T11:00:34.494Z,466.88
2022-10-20T11:01:34.378Z,455.62
2022-10-20T11:02:34.664Z,461.25
2022-10-20T11:03:37.622Z,438.75
2022-10-20T11:04:34.348Z,450.00
2022-10-20T11:05:34.350Z,472.50
2022-10-20T11:06:34.362Z,495.00
2022-10-20T11:07:34.551Z,511.88
2022-10-20T11:08:34.340Z,534.38
2022-10-20T11:09:34.333Z,528.75
2022-10-20T11:10:34.325Z,540.00
2022-10-20T11:11:34.322Z,523.12
2022-10-20T11:12:34.258Z,556.88
2022-10-20T11:13:34.250Z,556.88
2022-10-20T11:14:34.300Z,495.00
2022-10-20T11:15:34.231Z,444.38
2022-10-20T11:16:34.216Z,416.25
2022-10-20T11:17:34.483Z,388.12
2022-10-20T11:18:34.196Z,371.25
2022-10-20T11:19:34.179Z,365.62
2022-10-20T11:20:34.189Z,354.38
2022-10-20T11:21:34.162Z,343.12
2022-10-20T11:22:34.220Z,348.75
2022-10-20T11:24:34.134Z,348.75
2022-10-20T11:25:34.119Z,354.38
2022-10-20T11:26:34.136Z,348.75
2022-10-20T11:27:34.488Z,337.50
2022-10-20T11:28:34.152Z,343.12
2022-10-20T11:29:34.079Z,360.00
2022-10-20T11:30:34.078Z,365.62
2022-10-20T11:31:34.068Z,371.25
2022-10-20T11:33:35.771Z,405.00
2022-10-20T11:34:34.035Z,421.88
2022-10-20T11:35:34.018Z,405.00
2022-10-20T11:36:34.069Z,393.75
2022-10-20T11:37:34.423Z,399.38
2022-10-20T11:38:33.999Z,416.25
2022-10-20T11:39:33.982Z,388.12
2022-10-20T11:40:34.078Z,354.38
2022-10-20T11:41:34.004Z,343.12
2022-10-20T11:42:34.231Z,337.50
2022-10-20T11:43:33.949Z,354.38
2022-10-20T11:44:33.941Z,382.50
2022-10-20T11:45:33.969Z,399.38
2022-10-20T11:46:33.910Z,382.50
2022-10-20T11:47:33.945Z,382.50
2022-10-20T11:48:33.897Z,376.88
2022-10-20T11:49:33.924Z,365.62
2022-10-20T11:50:34.490Z,337.50
2022-10-20T11:51:33.861Z,331.88
2022-10-20T11:52:34.178Z,326.25
2022-10-20T11:53:33.831Z,315.00
2022-10-20T11:54:33.834Z,303.75
2022-10-20T11:55:33.885Z,309.38
2022-10-20T11:56:33.821Z,315.00
2022-10-20T11:57:33.804Z,315.00
2022-10-20T11:58:33.786Z,315.00
2022-10-20T11:59:33.774Z,303.75
2022-10-20T12:00:33.774Z,303.75
2022-10-20T12:01:33.871Z,331.88
2022-10-20T12:02:33.932Z,371.25
2022-10-20T12:03:33.734Z,545.62
2022-10-20T12:04:33.733Z,697.50
2022-10-20T12:05:33.715Z,663.75
2022-10-20T12:06:33.730Z,613.12
2022-10-20T12:07:33.769Z,652.50
2022-10-20T12:08:33.746Z,877.50
2022-10-20T12:09:33.678Z,821.25
2022-10-20T12:10:33.667Z,759.38
2022-10-20T12:11:33.664Z,680.62
2022-10-20T12:12:33.854Z,663.75
2022-10-20T12:13:33.685Z,742.50
2022-10-20T12:14:33.631Z,742.50
2022-10-20T12:15:33.611Z,708.75
2022-10-20T12:16:33.673Z,697.50
2022-10-20T12:17:33.587Z,759.38
2022-10-20T12:18:33.599Z,804.38
2022-10-20T12:19:33.630Z,883.12
2022-10-20T12:20:33.572Z,894.38
2022-10-20T12:21:34.482Z,843.75
2022-10-20T12:22:33.726Z,804.38
2022-10-20T12:23:33.544Z,810.00
2022-10-20T12:24:33.523Z,843.75
2022-10-20T12:25:33.566Z,894.38
2022-10-20T12:26:33.548Z,911.25
2022-10-20T12:27:33.489Z,911.25
2022-10-20T12:28:33.516Z,871.88
2022-10-20T12:29:33.467Z,815.62
2022-10-20T12:30:33.478Z,804.38
2022-10-20T12:31:33.551Z,798.75
2022-10-20T12:32:33.593Z,765.00
2022-10-20T12:33:33.427Z,714.38
2022-10-20T12:34:33.425Z,641.25
2022-10-20T12:35:33.454Z,590.62
2022-10-20T12:36:33.404Z,573.75
2022-10-20T12:37:33.511Z,585.00
2022-10-20T12:38:33.427Z,607.50
2022-10-20T12:39:33.422Z,618.75
2022-10-20T12:40:33.402Z,635.62
2022-10-20T12:41:33.400Z,669.38
2022-10-20T12:42:33.389Z,736.88
2022-10-20T12:43:33.335Z,686.25
2022-10-20T12:44:33.324Z,663.75
2022-10-20T12:45:33.319Z,680.62
2022-10-20T12:46:33.983Z,714.38
2022-10-20T12:47:33.435Z,753.75
2022-10-20T12:48:33.335Z,793.12
2022-10-20T12:49:33.368Z,832.50
2022-10-20T12:50:33.276Z,866.25
2022-10-20T12:51:33.293Z,877.50
2022-10-20T12:52:33.248Z,849.38
2022-10-20T12:53:33.229Z,821.25
2022-10-20T12:54:33.274Z,793.12
2022-10-20T12:55:35.046Z,759.38
2022-10-20T12:56:33.213Z,720.00